Time;durP1;ratioP1;P1;durP2;ratioP2;P2;SDS_P1;SDS_P2;PMS_P1;PMS_P2;Temp;Humidity;BMP_temperature;BMP_pressure;BME280_temperature;BME280_humidity;BME280_pressure;Samples;Min_cycle;Max_cycle;Signal;HPM_P1;HPM_P2
2023/02/12 00:02:20;;;;;;;68.32;36.47;;;6.90;99.90;;;;;;4977544;28;20537;-48
2023/02/12 00:05:09;;;;;;;68.38;36.70;;;6.90;99.90;;;;;;4991103;28;20026;-49
2023/02/12 00:07:55;;;;;;;66.72;35.75;;;6.90;99.90;;;;;;4978982;28;20510;-47
2023/02/12 00:10:42;;;;;;;65.43;35.28;;;6.80;99.90;;;;;;4994737;28;20450;-50
2023/02/12 00:13:30;;;;;;;67.38;36.33;;;6.80;99.90;;;;;;4994214;28;20570;-49
2023/02/12 00:16:19;;;;;;;64.20;35.63;;;6.90;99.90;;;;;;4994935;28;20533;-48
2023/02/12 00:19:05;;;;;;;67.03;37.72;;;6.90;99.90;;;;;;4993769;28;20097;-48
2023/02/12 00:21:51;;;;;;;65.78;37.55;;;6.80;99.90;;;;;;4994845;28;20069;-47
2023/02/12 00:24:37;;;;;;;63.33;35.58;;;6.80;99.90;;;;;;4995248;28;20026;-47
2023/02/12 00:27:23;;;;;;;68.47;35.28;;;6.80;99.90;;;;;;4994165;28;20030;-49
2023/02/12 00:30:10;;;;;;;67.78;36.03;;;6.90;99.90;;;;;;4975088;28;20134;-47
2023/02/12 00:32:56;;;;;;;65.53;36.90;;;6.80;99.90;;;;;;4982813;28;20027;-50
2023/02/12 00:35:41;;;;;;;60.75;34.78;;;6.90;99.90;;;;;;4994034;28;20034;-48
2023/02/12 00:38:28;;;;;;;61.17;35.15;;;6.90;99.90;;;;;;4994492;28;20040;-48
2023/02/12 00:41:14;;;;;;;67.57;35.55;;;6.80;99.90;;;;;;4994510;28;20038;-47
2023/02/12 00:44:00;;;;;;;60.53;34.00;;;6.70;99.90;;;;;;4994506;28;20145;-49
2023/02/12 00:46:46;;;;;;;64.70;34.47;;;6.70;99.90;;;;;;4993786;28;20026;-46
2023/02/12 00:49:33;;;;;;;63.05;35.65;;;6.80;99.90;;;;;;4994690;28;20045;-46
2023/02/12 00:52:19;;;;;;;66.68;36.58;;;6.80;99.90;;;;;;4983724;28;20482;-46
2023/02/12 00:55:05;;;;;;;65.15;36.22;;;6.80;99.90;;;;;;4996911;28;20042;-49
2023/02/12 00:57:51;;;;;;;63.40;36.33;;;7.00;99.90;;;;;;5002307;28;20033;-46
2023/02/12 01:00:37;;;;;;;58.40;35.13;;;7.10;99.90;;;;;;4988036;28;20117;-45
2023/02/12 01:03:24;;;;;;;56.25;33.55;;;7.00;99.90;;;;;;4994161;28;20058;-49
2023/02/12 01:06:10;;;;;;;60.80;34.50;;;7.00;99.90;;;;;;4993618;28;20057;-47
2023/02/12 01:08:56;;;;;;;56.95;33.05;;;7.00;99.90;;;;;;4993637;28;20026;-48
2023/02/12 01:11:42;;;;;;;58.75;35.25;;;7.00;99.90;;;;;;4993492;28;20030;-48
2023/02/12 01:14:28;;;;;;;53.30;32.13;;;7.10;99.90;;;;;;4994271;28;20055;-45
2023/02/12 01:17:14;;;;;;;58.45;34.08;;;7.20;99.90;;;;;;4998719;28;20027;-46
2023/02/12 01:20:00;;;;;;;55.55;34.70;;;7.10;99.90;;;;;;4991233;28;20682;-48
2023/02/12 01:22:46;;;;;;;58.13;32.55;;;7.00;99.90;;;;;;4986047;28;20078;-47
2023/02/12 01:25:32;;;;;;;61.97;32.90;;;7.00;99.90;;;;;;4988014;28;20061;-50
2023/02/12 01:28:18;;;;;;;60.22;34.38;;;7.00;99.90;;;;;;4983538;28;20027;-48
2023/02/12 01:31:18;;;;;;;61.15;34.75;;;6.90;99.90;;;;;;4988877;28;20033;-52
2023/02/12 01:34:06;;;;;;;54.50;32.45;;;7.00;99.90;;;;;;4987938;28;20042;-49
2023/02/12 01:36:52;;;;;;;54.80;31.45;;;7.00;99.90;;;;;;4991848;28;20112;-49
2023/02/12 01:39:38;;;;;;;58.13;33.10;;;7.10;99.90;;;;;;4987432;28;20041;-50
2023/02/12 01:42:24;;;;;;;63.60;35.63;;;7.00;99.90;;;;;;4988343;28;20033;-47
2023/02/12 01:45:13;;;;;;;63.90;35.53;;;6.90;99.90;;;;;;4990750;28;20035;-48
2023/02/12 01:47:59;;;;;;;58.67;35.65;;;7.00;99.90;;;;;;4991342;28;20027;-51
2023/02/12 01:50:47;;;;;;;55.20;33.67;;;7.00;99.90;;;;;;5001843;28;20041;-47
2023/02/12 01:53:43;;;;;;;60.25;34.95;;;6.90;99.90;;;;;;4988496;28;20045;-50
2023/02/12 01:56:29;;;;;;;58.28;33.30;;;7.00;99.90;;;;;;4996300;28;20180;-48
2023/02/12 01:59:17;;;;;;;59.72;33.53;;;6.90;99.90;;;;;;5004162;28;20037;-47
2023/02/12 02:02:04;;;;;;;55.92;32.50;;;6.90;99.90;;;;;;5011940;28;20033;-50
2023/02/12 02:04:54;;;;;;;54.65;31.45;;;6.90;99.90;;;;;;4974346;28;20407;-50
2023/02/12 02:07:43;;;;;;;54.40;34.00;;;7.00;99.90;;;;;;4977765;28;20022;-48
2023/02/12 02:10:29;;;;;;;60.65;33.72;;;6.90;99.90;;;;;;4991851;28;20045;-46
2023/02/12 02:16:26;;;;;;;60.80;34.77;;;6.90;99.90;;;;;;4992704;28;20073;-48
2023/02/12 02:19:29;;;;;;;52.67;31.25;;;7.00;99.90;;;;;;4993111;28;20034;-50
2023/02/12 02:22:23;;;;;;;52.72;31.52;;;7.00;99.90;;;;;;4991230;28;20026;-48
2023/02/12 02:25:18;;;;;;;53.13;31.98;;;7.10;99.90;;;;;;4991288;28;20472;-46
2023/02/12 02:28:21;;;;;;;51.15;30.67;;;7.00;99.90;;;;;;4978999;28;20019;-51
2023/02/12 02:31:11;;;;;;;45.70;30.02;;;7.10;99.90;;;;;;4998418;28;20058;-48
2023/02/12 02:34:22;;;;;;;50.10;31.60;;;7.10;99.90;;;;;;4992312;28;20402;-50
2023/02/12 02:37:44;;;;;;;50.67;30.98;;;7.20;99.90;;;;;;4990945;28;20093;-49
2023/02/12 02:40:45;;;;;;;50.50;29.10;;;7.00;99.90;;;;;;4972950;28;20073;-47
2023/02/12 02:43:41;;;;;;;51.70;30.85;;;7.10;99.90;;;;;;4976494;28;20041;-49
2023/02/12 02:46:35;;;;;;;50.20;30.30;;;7.10;99.90;;;;;;4998196;28;20015;-46
2023/02/12 02:49:28;;;;;;;49.92;29.33;;;7.10;99.90;;;;;;4992735;28;20036;-46
2023/02/12 02:52:19;;;;;;;46.63;28.63;;;7.10;99.90;;;;;;4991170;28;20034;-46
2023/02/12 02:55:08;;;;;;;47.80;28.98;;;7.10;99.90;;;;;;4990935;28;20049;-49
2023/02/12 02:58:03;;;;;;;47.30;30.05;;;7.10;99.90;;;;;;4991657;28;20018;-48
2023/02/12 03:01:06;;;;;;;44.53;27.67;;;7.10;99.90;;;;;;4991741;28;20072;-47
2023/02/12 03:04:01;;;;;;;43.72;26.40;;;7.10;99.90;;;;;;4991231;28;20034;-46
2023/02/12 03:07:26;;;;;;;45.63;29.55;;;7.20;99.90;;;;;;4996808;28;20084;-47
2023/02/12 03:10:36;;;;;;;45.25;26.65;;;7.10;99.90;;;;;;5010020;28;20041;-49
2023/02/12 03:13:24;;;;;;;40.78;26.70;;;7.20;99.90;;;;;;5003104;28;20038;-46
2023/02/12 03:16:15;;;;;;;39.33;25.67;;;7.10;99.90;;;;;;4999658;28;20062;-46
2023/02/12 03:19:10;;;;;;;39.65;25.65;;;7.20;99.90;;;;;;4995215;28;20034;-48
2023/02/12 03:22:10;;;;;;;42.40;26.63;;;7.30;99.90;;;;;;4991188;28;20092;-47
2023/02/12 03:25:20;;;;;;;39.28;25.63;;;7.30;99.90;;;;;;4990486;28;20526;-48
2023/02/12 03:28:13;;;;;;;44.47;26.90;;;7.20;99.90;;;;;;4990163;28;20062;-47
2023/02/12 03:31:18;;;;;;;42.33;26.85;;;7.20;99.90;;;;;;4991355;28;20565;-46
2023/02/12 03:34:25;;;;;;;41.35;25.05;;;7.20;99.90;;;;;;4991755;28;20080;-51
2023/02/12 03:37:32;;;;;;;40.53;26.05;;;7.20;99.90;;;;;;4991627;28;20035;-49
2023/02/12 03:40:24;;;;;;;41.13;26.58;;;7.20;99.90;;;;;;4971743;28;20035;-46
2023/02/12 03:43:26;;;;;;;37.88;24.75;;;7.40;99.90;;;;;;4979242;28;20090;-51
2023/02/12 03:46:25;;;;;;;42.70;25.80;;;7.40;99.90;;;;;;4994371;28;20449;-49
2023/02/12 03:49:22;;;;;;;40.67;25.13;;;7.30;99.90;;;;;;5005397;28;20434;-47
2023/02/12 03:52:08;;;;;;;35.70;24.40;;;7.50;99.90;;;;;;5016512;28;20439;-47
2023/02/12 03:54:54;;;;;;;38.97;24.80;;;7.40;99.90;;;;;;4998141;28;20411;-48
2023/02/12 03:57:44;;;;;;;40.42;26.25;;;7.30;99.90;;;;;;4995800;28;20384;-45
2023/02/12 04:00:30;;;;;;;38.65;24.63;;;7.30;99.90;;;;;;4994119;28;20619;-48
2023/02/12 04:03:16;;;;;;;41.47;26.13;;;7.30;99.90;;;;;;4994889;28;20065;-49
2023/02/12 04:06:02;;;;;;;41.70;27.95;;;7.20;99.90;;;;;;4995454;28;20050;-47
2023/02/12 04:08:49;;;;;;;44.42;27.83;;;7.20;99.90;;;;;;4982132;28;20022;-50
2023/02/12 04:12:01;;;;;;;39.38;26.10;;;7.20;99.90;;;;;;5001040;28;20033;-50
2023/02/12 04:14:47;;;;;;;40.35;27.10;;;7.10;99.90;;;;;;4994278;28;20034;-47
2023/02/12 04:17:45;;;;;;;42.90;26.85;;;7.10;99.90;;;;;;4994996;28;20491;-49
2023/02/12 04:20:42;;;;;;;42.80;26.90;;;7.00;99.90;;;;;;4976288;28;20038;-46
2023/02/12 04:23:44;;;;;;;51.38;29.90;;;7.00;99.90;;;;;;4982220;28;21992;-48
2023/02/12 04:26:46;;;;;;;45.83;28.73;;;6.90;99.90;;;;;;4995492;28;20026;-48
2023/02/12 04:30:06;;;;;;;44.03;27.88;;;6.80;99.90;;;;;;4994952;28;20040;-48
2023/02/12 04:33:02;;;;;;;45.03;26.63;;;7.00;99.90;;;;;;4994808;28;20105;-47
2023/02/12 04:35:53;;;;;;;39.80;24.20;;;7.00;99.90;;;;;;4993797;28;20034;-50
2023/02/12 04:38:52;;;;;;;42.65;25.83;;;7.20;99.90;;;;;;4994353;28;20065;-46
2023/02/12 04:41:38;;;;;;;43.35;25.75;;;7.20;99.90;;;;;;4994474;28;20117;-49
2023/02/12 04:44:27;;;;;;;38.88;23.67;;;7.30;99.90;;;;;;4994557;28;20037;-47
2023/02/12 04:47:15;;;;;;;37.80;24.83;;;7.30;99.90;;;;;;4993151;28;20022;-47
2023/02/12 04:50:01;;;;;;;37.45;23.38;;;7.30;99.90;;;;;;4993236;28;20027;-51
2023/02/12 04:52:47;;;;;;;36.38;24.27;;;7.30;99.90;;;;;;4993509;28;20043;-49
2023/02/12 04:55:33;;;;;;;40.13;25.58;;;7.20;99.90;;;;;;4993773;28;20506;-46
2023/02/12 04:58:19;;;;;;;44.35;25.38;;;7.10;99.90;;;;;;5000975;28;20027;-51
2023/02/12 05:01:06;;;;;;;42.55;25.30;;;7.20;99.90;;;;;;5010960;28;20491;-52
2023/02/12 05:03:52;;;;;;;42.20;26.13;;;7.20;99.90;;;;;;4995473;28;20043;-46
2023/02/12 05:06:38;;;;;;;38.58;24.38;;;7.20;99.90;;;;;;4993915;28;20027;-48
2023/02/12 05:09:24;;;;;;;40.00;24.70;;;7.20;99.90;;;;;;4974759;28;20023;-46
2023/02/12 05:12:10;;;;;;;40.10;24.08;;;7.20;99.90;;;;;;5002350;28;20026;-48
2023/02/12 05:14:56;;;;;;;42.05;25.48;;;7.20;99.90;;;;;;5013031;28;20026;-47
2023/02/12 05:17:44;;;;;;;44.42;26.13;;;7.20;99.90;;;;;;5004921;28;20108;-46
2023/02/12 05:20:30;;;;;;;41.13;26.05;;;7.10;99.90;;;;;;4997848;28;20026;-46
2023/02/12 05:23:16;;;;;;;43.55;25.85;;;7.10;99.90;;;;;;4993600;28;20038;-48
2023/02/12 05:26:05;;;;;;;45.97;25.95;;;7.10;99.90;;;;;;4992625;28;20018;-51
2023/02/12 05:28:51;;;;;;;46.65;28.52;;;7.10;99.90;;;;;;4996992;28;20033;-49
2023/02/12 05:31:37;;;;;;;49.88;27.15;;;7.00;99.90;;;;;;4974384;28;20408;-49
2023/02/12 05:34:23;;;;;;;41.85;25.67;;;7.10;99.90;;;;;;4992901;28;20030;-48
2023/02/12 05:37:09;;;;;;;47.67;27.67;;;7.10;99.90;;;;;;4993297;28;20033;-49
2023/02/12 05:39:54;;;;;;;47.95;27.92;;;7.10;99.90;;;;;;4993881;28;20441;-50
2023/02/12 05:42:40;;;;;;;46.42;27.23;;;7.10;99.90;;;;;;4993998;28;20380;-51
2023/02/12 05:45:28;;;;;;;45.58;27.48;;;7.10;99.90;;;;;;5000748;28;20042;-50
2023/02/12 05:48:14;;;;;;;44.03;27.50;;;7.00;99.90;;;;;;4992497;28;20026;-49
2023/02/12 05:51:07;;;;;;;45.17;27.42;;;7.10;99.90;;;;;;4993767;28;20030;-47
2023/02/12 05:54:02;;;;;;;44.25;26.83;;;7.20;99.90;;;;;;4991913;28;20028;-48
2023/02/12 05:56:48;;;;;;;44.33;26.25;;;7.10;99.90;;;;;;4996650;28;20028;-49
2023/02/12 05:59:34;;;;;;;45.25;25.60;;;7.10;99.90;;;;;;4985547;28;20121;-51
2023/02/12 06:02:20;;;;;;;44.92;26.75;;;7.00;99.90;;;;;;4992616;28;20046;-54
2023/02/12 06:05:06;;;;;;;45.35;25.85;;;7.10;99.90;;;;;;5009175;28;20574;-51
2023/02/12 06:07:52;;;;;;;43.30;24.90;;;7.10;99.90;;;;;;5011547;28;20485;-49
2023/02/12 06:10:38;;;;;;;45.10;26.42;;;7.10;99.90;;;;;;4998816;28;20023;-52
2023/02/12 06:13:24;;;;;;;43.45;25.83;;;7.10;99.90;;;;;;4992987;28;20455;-53
2023/02/12 06:16:27;;;;;;;43.85;24.92;;;7.10;99.90;;;;;;4992309;28;20877;-50
2023/02/12 06:19:13;;;;;;;41.72;25.63;;;7.00;99.90;;;;;;4992135;28;20042;-54
2023/02/12 06:21:59;;;;;;;42.13;24.48;;;7.10;99.90;;;;;;4992847;28;20566;-49
2023/02/12 06:24:44;;;;;;;43.15;25.63;;;7.00;99.90;;;;;;4978409;28;20058;-50
2023/02/12 06:27:30;;;;;;;39.28;25.50;;;7.10;99.90;;;;;;4992409;28;20410;-51
2023/02/12 06:30:16;;;;;;;40.50;24.65;;;7.20;99.90;;;;;;4991555;28;20376;-53
2023/02/12 06:33:02;;;;;;;41.08;25.42;;;7.10;99.90;;;;;;5000015;28;20486;-53
2023/02/12 06:35:48;;;;;;;41.60;24.20;;;7.10;99.90;;;;;;4992518;28;20034;-56
2023/02/12 06:38:34;;;;;;;38.65;22.90;;;7.10;99.90;;;;;;4999328;28;20392;-51
2023/02/12 06:41:21;;;;;;;43.58;25.65;;;7.10;99.90;;;;;;4994631;28;20086;-52
2023/02/12 06:44:07;;;;;;;42.05;25.52;;;7.10;99.90;;;;;;4990996;28;20030;-52
2023/02/12 06:46:53;;;;;;;42.03;23.98;;;7.20;99.90;;;;;;4973313;28;20074;-49
2023/02/12 06:49:39;;;;;;;40.25;24.35;;;7.20;99.90;;;;;;4983070;28;20014;-51
2023/02/12 06:52:26;;;;;;;41.42;24.67;;;7.10;99.90;;;;;;4999705;28;20069;-50
2023/02/12 06:55:12;;;;;;;44.53;24.15;;;7.10;99.90;;;;;;4990730;28;20093;-50
2023/02/12 06:57:58;;;;;;;41.72;26.33;;;7.10;99.90;;;;;;4995894;28;20026;-49
2023/02/12 07:00:44;;;;;;;42.25;25.27;;;7.10;99.90;;;;;;5001310;28;20042;-51
2023/02/12 07:03:30;;;;;;;41.65;25.75;;;7.20;99.90;;;;;;4991992;28;20034;-50
2023/02/12 07:06:16;;;;;;;41.17;24.63;;;7.10;99.90;;;;;;4989715;28;20085;-52
2023/02/12 07:09:03;;;;;;;43.05;26.55;;;7.10;99.90;;;;;;5003462;28;20018;-52
2023/02/12 07:11:49;;;;;;;47.97;24.90;;;7.10;99.90;;;;;;5002618;28;20096;-49
2023/02/12 07:14:35;;;;;;;38.67;24.40;;;7.10;99.90;;;;;;5000139;28;20038;-49
2023/02/12 07:17:21;;;;;;;40.25;24.73;;;7.20;99.90;;;;;;4972193;28;20097;-50
2023/02/12 07:20:08;;;;;;;43.72;25.17;;;7.10;99.90;;;;;;4974203;28;20027;-48
2023/02/12 07:22:54;;;;;;;42.95;25.63;;;7.20;99.90;;;;;;4977300;28;20036;-55
2023/02/12 07:25:39;;;;;;;46.45;26.70;;;7.20;99.90;;;;;;4991508;28;20038;-49
2023/02/12 07:28:26;;;;;;;39.75;24.77;;;7.20;99.90;;;;;;4991576;28;20495;-55
2023/02/12 07:31:19;;;;;;;47.13;25.65;;;7.20;99.90;;;;;;4992862;28;20018;-50
2023/02/12 07:34:05;;;;;;;45.17;26.40;;;7.10;99.90;;;;;;5002460;28;20076;-49
2023/02/12 07:36:54;;;;;;;39.05;24.83;;;7.10;99.90;;;;;;4971474;28;20120;-54
2023/02/12 07:39:40;;;;;;;41.90;25.70;;;7.30;99.90;;;;;;4973642;28;20522;-53
2023/02/12 07:42:26;;;;;;;44.60;25.65;;;7.20;99.90;;;;;;4990644;28;20491;-52
2023/02/12 07:45:12;;;;;;;42.75;27.50;;;7.10;99.90;;;;;;4995953;28;20037;-48
2023/02/12 07:48:00;;;;;;;44.00;25.40;;;7.10;99.90;;;;;;4995107;28;20034;-51
2023/02/12 07:50:46;;;;;;;47.95;27.52;;;7.00;99.90;;;;;;4990282;28;20018;-51
2023/02/12 07:53:32;;;;;;;44.58;26.38;;;7.00;99.90;;;;;;4991191;28;20030;-54
2023/02/12 07:56:24;;;;;;;46.83;26.65;;;7.10;99.90;;;;;;4990099;28;20023;-54
2023/02/12 07:59:12;;;;;;;43.42;24.58;;;7.10;99.90;;;;;;4991644;28;20027;-50
2023/02/12 08:01:59;;;;;;;42.75;27.42;;;7.20;99.90;;;;;;4997673;28;20560;-50
2023/02/12 08:04:45;;;;;;;40.60;25.15;;;7.30;99.90;;;;;;5005393;28;20510;-52
2023/02/12 08:07:31;;;;;;;43.33;26.95;;;7.30;99.90;;;;;;4990301;28;20507;-53
2023/02/12 08:10:21;;;;;;;42.70;26.10;;;7.40;99.90;;;;;;4991057;28;20026;-50
2023/02/12 08:13:06;;;;;;;38.45;24.60;;;7.50;99.90;;;;;;4972459;28;20050;-55
2023/02/12 08:16:03;;;;;;;40.63;26.00;;;7.40;99.90;;;;;;4991132;28;20061;-51
2023/02/12 08:18:49;;;;;;;39.10;24.95;;;7.50;99.90;;;;;;4991318;28;20031;-55
2023/02/12 08:21:35;;;;;;;39.60;23.83;;;7.50;99.90;;;;;;4997300;28;20030;-52
2023/02/12 08:24:22;;;;;;;43.22;25.83;;;7.50;99.90;;;;;;4992653;28;20458;-54
2023/02/12 08:27:08;;;;;;;40.90;25.98;;;7.60;99.90;;;;;;4992628;28;20033;-53
2023/02/12 08:29:53;;;;;;;43.58;25.83;;;7.60;99.90;;;;;;4995344;28;20084;-53
2023/02/12 08:32:39;;;;;;;43.05;26.20;;;7.60;99.90;;;;;;4997602;28;20041;-51
2023/02/12 08:35:26;;;;;;;42.28;25.95;;;7.60;99.90;;;;;;4997517;28;20473;-53
2023/02/12 08:38:12;;;;;;;41.97;25.42;;;7.60;99.90;;;;;;4998586;28;20129;-56
2023/02/12 08:41:06;;;;;;;42.10;25.08;;;7.70;99.90;;;;;;4999267;28;20026;-53
2023/02/12 08:43:56;;;;;;;40.13;25.73;;;7.70;99.90;;;;;;4993914;28;20138;-49
2023/02/12 08:46:45;;;;;;;38.45;25.00;;;7.80;99.90;;;;;;4975290;28;20034;-52
2023/02/12 08:49:31;;;;;;;36.75;23.70;;;7.80;99.90;;;;;;4980693;28;20085;-50
2023/02/12 08:52:18;;;;;;;37.20;24.25;;;7.90;99.90;;;;;;4999220;28;20090;-53
2023/02/12 08:55:04;;;;;;;35.35;24.38;;;7.80;99.90;;;;;;5001774;28;20061;-52
2023/02/12 08:57:52;;;;;;;38.70;25.15;;;7.90;99.90;;;;;;4998414;28;20166;-53
2023/02/12 09:00:38;;;;;;;38.45;24.17;;;7.90;99.90;;;;;;4984962;28;20114;-54
2023/02/12 09:03:24;;;;;;;37.75;23.13;;;8.00;99.90;;;;;;5003087;28;20516;-54
2023/02/12 09:06:11;;;;;;;40.97;26.17;;;8.00;99.90;;;;;;4994892;28;20130;-54
2023/02/12 09:08:57;;;;;;;40.85;25.17;;;7.90;99.90;;;;;;4978756;28;20439;-50
2023/02/12 09:11:43;;;;;;;40.20;23.75;;;7.90;99.90;;;;;;4991210;28;20443;-53
2023/02/12 09:14:29;;;;;;;37.90;24.17;;;7.90;99.90;;;;;;4993995;28;20103;-56
2023/02/12 09:17:15;;;;;;;40.70;26.70;;;7.90;99.90;;;;;;4990556;28;20029;-56
2023/02/12 09:20:01;;;;;;;44.22;26.42;;;7.90;99.90;;;;;;4986057;28;20031;-50
2023/02/12 09:22:47;;;;;;;43.72;25.92;;;8.00;99.90;;;;;;4991781;28;20049;-55
2023/02/12 09:25:37;;;;;;;37.13;24.98;;;8.00;99.90;;;;;;4990724;28;20066;-53
2023/02/12 09:28:23;;;;;;;40.05;24.67;;;8.10;99.90;;;;;;4992219;28;20093;-53
2023/02/12 09:31:13;;;;;;;40.78;24.40;;;8.00;99.90;;;;;;4997512;28;20033;-54
2023/02/12 09:34:05;;;;;;;39.80;24.77;;;8.00;99.90;;;;;;4995400;28;20038;-49
2023/02/12 09:36:51;;;;;;;36.97;24.83;;;8.10;99.90;;;;;;4997355;28;20077;-54
2023/02/12 09:39:36;;;;;;;48.00;27.92;;;8.10;99.90;;;;;;4992744;28;20033;-55
2023/02/12 09:42:42;;;;;;;46.95;27.55;;;8.20;99.90;;;;;;4995842;28;20042;-55
2023/02/12 09:45:35;;;;;;;39.13;24.17;;;8.30;99.90;;;;;;4987343;28;20057;-61
2023/02/12 09:48:59;;;;;;;43.65;22.80;;;8.40;99.90;;;;;;5001271;28;20030;-58
2023/02/12 09:51:52;;;;;;;37.70;23.15;;;8.50;99.90;;;;;;5002556;28;20068;-61
2023/02/12 09:54:39;;;;;;;37.95;22.77;;;8.60;99.90;;;;;;4994594;28;20077;-59
2023/02/12 09:57:35;;;;;;;33.03;21.25;;;8.60;99.90;;;;;;4998949;28;20048;-59
2023/02/12 10:00:32;;;;;;;35.95;21.98;;;8.80;99.90;;;;;;4995123;28;20037;-61
2023/02/12 10:03:18;;;;;;;38.38;22.15;;;8.80;99.90;;;;;;5011334;28;20115;-60
2023/02/12 10:06:07;;;;;;;32.03;22.20;;;8.70;99.90;;;;;;4987542;28;20064;-59
2023/02/12 10:09:30;;;;;;;34.95;22.83;;;8.70;99.90;;;;;;4978555;28;20033;-60
2023/02/12 10:12:43;;;;;;;32.60;22.27;;;8.60;99.90;;;;;;4993117;28;20026;-56
2023/02/12 10:16:00;;;;;;;31.30;20.20;;;8.60;99.90;;;;;;4991833;28;20027;-58
2023/02/12 10:19:03;;;;;;;40.65;23.83;;;8.60;99.90;;;;;;4990347;28;20185;-59
2023/02/12 10:22:07;;;;;;;36.35;21.88;;;8.60;99.90;;;;;;4992860;28;20106;-59
2023/02/12 10:25:17;;;;;;;38.05;23.08;;;8.50;99.90;;;;;;4992227;28;20101;-58
2023/02/12 10:28:14;;;;;;;40.72;23.95;;;8.50;99.90;;;;;;4992057;28;20015;-60
2023/02/12 10:31:06;;;;;;;36.38;23.33;;;8.40;99.90;;;;;;4992479;28;20039;-59
2023/02/12 10:33:53;;;;;;;38.15;24.10;;;8.40;99.90;;;;;;4992075;28;20022;-62
2023/02/12 10:36:48;;;;;;;38.22;24.38;;;8.50;99.90;;;;;;4992166;28;20034;-59
2023/02/12 10:39:44;;;;;;;43.13;24.55;;;8.50;99.90;;;;;;4990733;28;20038;-53
2023/02/12 10:42:40;;;;;;;38.38;22.60;;;8.30;99.90;;;;;;4973449;28;20081;-58
2023/02/12 10:45:42;;;;;;;38.45;23.83;;;8.30;99.90;;;;;;4972861;28;20491;-58
2023/02/12 10:48:38;;;;;;;38.83;24.75;;;8.50;99.90;;;;;;4988989;28;20039;-59
2023/02/12 10:51:33;;;;;;;40.72;23.20;;;8.40;99.90;;;;;;4991576;28;20039;-59
2023/02/12 10:54:48;;;;;;;37.13;22.95;;;8.50;99.90;;;;;;4992403;28;20026;-60
2023/02/12 10:57:38;;;;;;;47.03;24.67;;;8.60;99.90;;;;;;4969972;28;20504;-60
2023/02/12 11:00:40;;;;;;;34.17;21.85;;;8.60;99.90;;;;;;4980913;28;20781;-51
2023/02/12 11:03:38;;;;;;;38.70;24.10;;;8.70;99.90;;;;;;4992388;28;20041;-57
2023/02/12 11:06:28;;;;;;;37.65;24.05;;;8.70;99.90;;;;;;4992258;28;20030;-58
2023/02/12 11:09:30;;;;;;;37.65;22.98;;;8.60;99.90;;;;;;4991631;28;20093;-56
2023/02/12 11:12:18;;;;;;;29.42;20.58;;;8.60;99.90;;;;;;4990543;28;20030;-55
2023/02/12 11:15:10;;;;;;;37.05;23.10;;;8.70;99.90;;;;;;4991765;28;20038;-58
2023/02/12 11:18:01;;;;;;;37.05;22.00;;;8.70;99.90;;;;;;4991376;28;20646;-49
2023/02/12 11:20:51;;;;;;;36.75;23.13;;;8.70;99.90;;;;;;4990964;28;20037;-48
2023/02/12 11:23:40;;;;;;;40.95;24.25;;;8.60;99.90;;;;;;4977248;28;20053;-52
2023/02/12 11:26:28;;;;;;;35.22;22.25;;;8.40;99.90;;;;;;4990773;28;20028;-53
2023/02/12 11:29:23;;;;;;;38.75;24.45;;;8.40;99.90;;;;;;4990193;28;20526;-51
2023/02/12 11:32:17;;;;;;;42.67;26.20;;;8.50;99.90;;;;;;4992796;28;20023;-53
2023/02/12 11:35:05;;;;;;;40.90;23.57;;;8.50;99.90;;;;;;4991471;28;20129;-50
2023/02/12 11:37:55;;;;;;;37.63;22.45;;;8.50;99.90;;;;;;4991954;28;20487;-53
2023/02/12 11:40:46;;;;;;;38.30;22.70;;;8.50;99.90;;;;;;4992161;28;20125;-51
2023/02/12 11:43:37;;;;;;;41.22;24.15;;;8.50;99.90;;;;;;4990479;28;20061;-51
2023/02/12 11:46:26;;;;;;;34.90;20.98;;;8.40;99.90;;;;;;4989771;28;20039;-53
2023/02/12 11:49:21;;;;;;;36.40;22.02;;;8.50;99.90;;;;;;4990593;28;20018;-52
2023/02/12 11:52:22;;;;;;;36.10;21.70;;;8.60;99.90;;;;;;4991628;28;20041;-51
2023/02/12 11:55:21;;;;;;;42.53;23.05;;;8.50;99.90;;;;;;4990787;28;20038;-58
2023/02/12 11:58:14;;;;;;;39.40;23.27;;;8.60;99.90;;;;;;4990011;28;20046;-57
2023/02/12 12:01:13;;;;;;;40.05;22.35;;;8.70;99.90;;;;;;4991061;28;20104;-54
2023/02/12 12:04:18;;;;;;;35.65;21.75;;;8.80;99.90;;;;;;4993491;28;20030;-57
2023/02/12 12:07:23;;;;;;;38.00;22.77;;;8.80;99.90;;;;;;4994832;28;20509;-55
2023/02/12 12:10:38;;;;;;;38.22;21.15;;;8.80;99.90;;;;;;4993787;28;20026;-55
2023/02/12 12:13:35;;;;;;;34.20;21.67;;;8.80;99.90;;;;;;4994706;28;20483;-55
2023/02/12 12:19:53;;;;;;;37.38;22.40;;;8.90;99.90;;;;;;4995633;28;20578;-54
2023/02/12 12:23:02;;;;;;;34.75;21.63;;;8.60;99.90;;;;;;4976684;28;20038;-56
2023/02/12 12:25:55;;;;;;;38.38;21.73;;;8.70;99.90;;;;;;4986863;28;20105;-56
2023/02/12 12:28:57;;;;;;;35.63;21.52;;;8.70;99.90;;;;;;4992970;28;20026;-55
2023/02/12 12:31:47;;;;;;;40.00;21.65;;;8.80;99.90;;;;;;4976059;28;20026;-53
2023/02/12 12:34:33;;;;;;;40.95;23.08;;;8.80;99.90;;;;;;4996991;28;20415;-55
2023/02/12 12:37:28;;;;;;;43.90;24.02;;;8.70;99.90;;;;;;4994775;28;20066;-56
2023/02/12 12:40:31;;;;;;;40.63;21.77;;;8.90;99.90;;;;;;4994936;28;20054;-54
2023/02/12 12:43:34;;;;;;;37.97;21.83;;;8.90;99.90;;;;;;4994996;28;20031;-56
2023/02/12 12:46:50;;;;;;;35.55;20.95;;;8.90;99.90;;;;;;4993421;28;20034;-54
2023/02/12 12:50:08;;;;;;;45.28;24.55;;;8.90;99.90;;;;;;4993602;28;20018;-55
2023/02/12 12:53:20;;;;;;;33.38;20.40;;;8.90;99.90;;;;;;4994515;28;20030;-56
2023/02/12 12:56:05;;;;;;;30.67;19.02;;;9.00;99.90;;;;;;4994459;28;20538;-55
2023/02/12 12:59:06;;;;;;;32.20;18.50;;;9.00;99.90;;;;;;4994861;28;20113;-51
2023/02/12 13:02:25;;;;;;;31.95;18.20;;;9.00;99.90;;;;;;4995199;28;20257;-55
2023/02/12 13:05:20;;;;;;;29.25;17.27;;;9.00;99.90;;;;;;4993840;28;20026;-55
2023/02/12 13:08:19;;;;;;;29.30;17.98;;;9.00;99.90;;;;;;4993758;28;20384;-55
2023/02/12 13:11:23;;;;;;;28.15;18.00;;;9.00;99.90;;;;;;4993138;28;20018;-55
2023/02/12 13:14:30;;;;;;;27.40;17.45;;;9.10;99.90;;;;;;4993339;28;20543;-63
2023/02/12 13:17:28;;;;;;;26.85;16.60;;;9.10;99.90;;;;;;4994384;28;20118;-53
2023/02/12 13:20:52;;;;;;;29.98;18.85;;;9.10;99.90;;;;;;4993362;28;20026;-57
2023/02/12 13:23:47;;;;;;;34.40;19.50;;;9.10;99.90;;;;;;4993097;28;20092;-55
2023/02/12 13:26:40;;;;;;;29.60;17.55;;;9.20;99.90;;;;;;4992780;28;20097;-55
2023/02/12 13:29:58;;;;;;;30.33;18.13;;;9.30;99.90;;;;;;4993737;28;20426;-56
2023/02/12 13:32:53;;;;;;;35.03;16.98;;;9.40;99.90;;;;;;4992879;28;20488;-55
2023/02/12 13:35:45;;;;;;;29.88;17.50;;;9.40;99.90;;;;;;4993768;28;20038;-55
2023/02/12 13:38:37;;;;;;;32.95;17.90;;;9.30;99.90;;;;;;4992660;28;20066;-57
2023/02/12 13:41:23;;;;;;;25.98;17.23;;;9.30;99.90;;;;;;4992384;28;20058;-55
2023/02/12 13:44:31;;;;;;;29.08;16.73;;;9.40;99.90;;;;;;4992519;28;20113;-56
2023/02/12 13:47:47;;;;;;;25.67;15.95;;;9.30;99.90;;;;;;4992135;28;20439;-56
2023/02/12 13:51:12;;;;;;;33.22;19.80;;;9.40;99.90;;;;;;4993626;28;20018;-56
2023/02/12 13:54:44;;;;;;;24.27;16.63;;;9.40;99.90;;;;;;4993443;28;20544;-55
2023/02/12 13:57:30;;;;;;;25.95;15.25;;;9.50;99.90;;;;;;4993048;28;20258;-52
2023/02/12 14:00:51;;;;;;;27.27;15.50;;;9.50;99.90;;;;;;4993540;28;20030;-60
2023/02/12 14:03:38;;;;;;;21.80;13.60;;;9.60;99.90;;;;;;4989679;28;20046;-57
2023/02/12 14:06:24;;;;;;;23.15;15.45;;;9.60;99.90;;;;;;4993502;28;20475;-58
2023/02/12 14:09:19;;;;;;;23.45;15.43;;;9.70;99.90;;;;;;4993194;28;20027;-60
2023/02/12 14:12:09;;;;;;;25.33;14.30;;;9.70;99.90;;;;;;4992398;28;20023;-56
2023/02/12 14:15:10;;;;;;;22.67;13.80;;;9.70;99.90;;;;;;4992859;28;20030;-61
2023/02/12 14:18:05;;;;;;;28.38;14.65;;;9.80;99.90;;;;;;4992780;28;20022;-61
2023/02/12 14:21:10;;;;;;;69.95;43.55;;;9.70;99.90;;;;;;4992116;28;20454;-57
2023/02/12 14:24:34;;;;;;;32.40;20.48;;;9.80;99.90;;;;;;4993421;28;20398;-52
2023/02/12 14:27:37;;;;;;;22.40;13.90;;;9.70;99.90;;;;;;4991961;28;20490;-56
2023/02/12 14:30:28;;;;;;;24.35;13.02;;;9.80;99.90;;;;;;4991615;28;20037;-60
2023/02/12 14:33:25;;;;;;;22.75;13.13;;;9.80;99.90;;;;;;4992789;28;20030;-55
2023/02/12 14:36:31;;;;;;;21.45;12.88;;;9.70;99.90;;;;;;4991502;28;20038;-55
2023/02/12 14:39:23;;;;;;;17.70;11.43;;;9.70;99.90;;;;;;4992792;28;20030;-56
2023/02/12 14:42:09;;;;;;;22.33;13.68;;;9.70;99.90;;;;;;4978618;28;20458;-57
2023/02/12 14:45:01;;;;;;;27.77;16.77;;;9.70;99.90;;;;;;4993165;28;20491;-55
2023/02/12 14:47:49;;;;;;;22.67;14.75;;;9.80;99.90;;;;;;4993461;28;20030;-57
2023/02/12 14:50:41;;;;;;;21.73;13.80;;;9.80;99.90;;;;;;4992331;28;20031;-59
2023/02/12 14:53:34;;;;;;;20.33;13.25;;;9.80;99.90;;;;;;4992245;28;20034;-56